Linkwood, Maryland
Current Conditions -  °F | °C
As of 6:18 PM on Saturday 25 Oct 2014 (Local Time) from KCGE Reporting Station
Clear Clear  
Wind Chill: 63°   Ceiling: Unl
Heat Index: 63°   Visibility: 10mi
Dew Point: 45°   Wind: 3mph
Humidity: 52%   Direction: 160°SSE
Pressure: 29.77"   Gusts: NA
Location:  38.54°N, 75.95°W
Report Text: KCGE 252218Z AUTO 16003KT 10SM CLR 17/07 A2977 RMK AO1
Loading
Personal Weather Stations






























Interactive Weather Map New forecast layout! Learn more

10-Day Weather Forecast

Advertisements
Track Severe Weather on mobile